Monday, October 20, 2014
09:50 UTC
  |  Log In   |  Register Free
Airport Search:

Ormond Beach Municipal Airport
(KOMN)

FAA data valid effective September 18, 2014 - November 13, 2014 (unless otherwise noted).

 
 
 
 
 
 
 
 
 
 
 
 
 
 

Current Aviation Weather for Ormond Beach Municipal Airport (KOMN)

The most recent METAR observation for KOMN was updated at: 0915
METAR Summary (Translated METAR)
KOMN
192250Z 03005KT 10SM SCT020 23/17 A3002 RMK LAST
KDAB
200853Z 23005KT 10SM BKN032 BKN040 BKN055 20/18 A3002 RMK AO2 SLP165 T02000183 58008
(7.8 nm SE from KOMN)
KXFL
200855Z AUTO 00000KT BKN039 OVC048 19/18 A3003 RMK AO2 T01910176 PWINO
(11.1 nm NW from KOMN)
TAF Summary (Translated TAF)
KDAB
(7.8 nm SE from KOMN)
200528Z 2006/2106 06007KT P6SM VCSH SCT040 BKN060 FM201400 08006KT P6SM VCSH BKN040 BKN060 FM202200 VRB03KT P6SM SCT040 BKN250
  Airport Weather Conditions for KOMN

 Current Weather at OMN
73° F
Partly Cloudy
Northeast winds at 5.8 mph
OMN NOAA Radar

Pressure: 30.02 in
Humidity: 69%
Wind: Northeast at 5.8 MPH (5 KT)
Dew Point: 62.6°F
Visibility: 10.00 mi


Airport Weather Forecast for KOMN

Translated METAR and TAF for KOMN
Translated METAR for KOMN (0945 UTC 20 October 2014)
found at http://aviationweather.gov/adds/metars/
 
You entered "KOMN"

Sorry, either there are no data available for your request or you did not enter any valid ICAO airport abbreviations.

See stations.txt for a list of known METAR and TAF locations. Then go back to the ADDS METARs or TAFs page and try again
 
Please try again and, if problems persist, then send mail to ncep.awc.adds@noaa.gov

Find All Airport Services Find A Hotel Find A Rental Car Find A Golf Course Find A Restaurant $100 Hamburger



FBO's on the Field
FBO Company Facility Photos Services Transportation Aviation Fuel Prices: Prices include tax
Catering Weather Repair Courtesy Rental Type 100LL JetA JetA+ MOGAS 8087
 
Sunrise Aviation

Currently rated 1.9 by 3 people
FS:Shell
Last Updated: Sep-26
Login to update fuel prices
SS:
Contact Sunrise AviationMore FBO Information
 
Add another FBO Facility Photos Catering Weather Repair Courtesy Rental Type 100LL JetA JetA+ MOGAS 8087
Services Transportation Aviation Fuel Prices: Prices include tax


model-print
model-print
model-print
model-print